sensor_id;sensor_type;location;lat;lon;timestamp;P1;durP1;ratioP1;P2;durP2;ratioP2
2011;SDS011;1009;51.436;6.972;2023-07-09T00:01:47;5.63;;;3.30;;
2011;SDS011;1009;51.436;6.972;2023-07-09T00:04:16;5.07;;;3.33;;
2011;SDS011;1009;51.436;6.972;2023-07-09T00:06:44;4.93;;;3.60;;
2011;SDS011;1009;51.436;6.972;2023-07-09T00:09:12;8.67;;;3.20;;
2011;SDS011;1009;51.436;6.972;2023-07-09T00:11:39;3.47;;;3.13;;
2011;SDS011;1009;51.436;6.972;2023-07-09T00:14:07;5.97;;;3.20;;
2011;SDS011;1009;51.436;6.972;2023-07-09T00:16:35;5.40;;;3.57;;
2011;SDS011;1009;51.436;6.972;2023-07-09T00:19:01;4.00;;;3.20;;
2011;SDS011;1009;51.436;6.972;2023-07-09T00:21:30;4.83;;;3.40;;
2011;SDS011;1009;51.436;6.972;2023-07-09T00:23:59;8.33;;;3.27;;
2011;SDS011;1009;51.436;6.972;2023-07-09T00:26:30;4.60;;;3.00;;
2011;SDS011;1009;51.436;6.972;2023-07-09T00:28:57;4.77;;;3.30;;
2011;SDS011;1009;51.436;6.972;2023-07-09T00:31:24;6.73;;;3.80;;
2011;SDS011;1009;51.436;6.972;2023-07-09T00:33:52;5.37;;;3.27;;
2011;SDS011;1009;51.436;6.972;2023-07-09T00:36:22;8.47;;;4.10;;
2011;SDS011;1009;51.436;6.972;2023-07-09T00:38:54;5.80;;;3.60;;
2011;SDS011;1009;51.436;6.972;2023-07-09T00:41:24;7.20;;;4.13;;
2011;SDS011;1009;51.436;6.972;2023-07-09T00:43:53;6.63;;;3.67;;
2011;SDS011;1009;51.436;6.972;2023-07-09T00:49:29;4.70;;;3.10;;
2011;SDS011;1009;51.436;6.972;2023-07-09T00:51:58;6.90;;;3.90;;
2011;SDS011;1009;51.436;6.972;2023-07-09T00:54:30;5.93;;;4.17;;
2011;SDS011;1009;51.436;6.972;2023-07-09T00:57:03;4.83;;;3.57;;
2011;SDS011;1009;51.436;6.972;2023-07-09T00:59:35;6.33;;;3.83;;
2011;SDS011;1009;51.436;6.972;2023-07-09T01:02:04;4.93;;;3.43;;
2011;SDS011;1009;51.436;6.972;2023-07-09T01:04:33;6.23;;;3.27;;
2011;SDS011;1009;51.436;6.972;2023-07-09T01:07:01;6.10;;;3.67;;
2011;SDS011;1009;51.436;6.972;2023-07-09T01:09:30;5.00;;;3.60;;
2011;SDS011;1009;51.436;6.972;2023-07-09T01:12:07;4.90;;;3.47;;
2011;SDS011;1009;51.436;6.972;2023-07-09T01:14:35;4.20;;;3.43;;
2011;SDS011;1009;51.436;6.972;2023-07-09T01:17:04;6.17;;;3.60;;
2011;SDS011;1009;51.436;6.972;2023-07-09T01:19:36;4.63;;;3.40;;
2011;SDS011;1009;51.436;6.972;2023-07-09T01:22:09;6.13;;;4.07;;
2011;SDS011;1009;51.436;6.972;2023-07-09T01:24:54;7.00;;;3.73;;
2011;SDS011;1009;51.436;6.972;2023-07-09T01:27:28;5.80;;;3.17;;
2011;SDS011;1009;51.436;6.972;2023-07-09T01:29:56;5.40;;;4.13;;
2011;SDS011;1009;51.436;6.972;2023-07-09T01:32:24;5.90;;;4.10;;
2011;SDS011;1009;51.436;6.972;2023-07-09T01:34:52;5.20;;;3.53;;
2011;SDS011;1009;51.436;6.972;2023-07-09T01:37:23;8.50;;;3.67;;
2011;SDS011;1009;51.436;6.972;2023-07-09T01:39:52;4.63;;;3.40;;
2011;SDS011;1009;51.436;6.972;2023-07-09T01:42:20;5.80;;;4.00;;
2011;SDS011;1009;51.436;6.972;2023-07-09T01:44:48;7.43;;;3.90;;
2011;SDS011;1009;51.436;6.972;2023-07-09T01:47:16;4.97;;;3.50;;
2011;SDS011;1009;51.436;6.972;2023-07-09T01:49:43;4.17;;;3.53;;
2011;SDS011;1009;51.436;6.972;2023-07-09T01:52:12;5.70;;;3.43;;
2011;SDS011;1009;51.436;6.972;2023-07-09T01:54:42;6.17;;;4.00;;
2011;SDS011;1009;51.436;6.972;2023-07-09T01:57:15;5.90;;;3.77;;
2011;SDS011;1009;51.436;6.972;2023-07-09T01:59:48;5.27;;;3.90;;
2011;SDS011;1009;51.436;6.972;2023-07-09T02:02:15;6.90;;;3.27;;
2011;SDS011;1009;51.436;6.972;2023-07-09T02:04:48;6.07;;;4.13;;
2011;SDS011;1009;51.436;6.972;2023-07-09T02:07:16;7.60;;;4.27;;
2011;SDS011;1009;51.436;6.972;2023-07-09T02:09:44;5.70;;;4.07;;
2011;SDS011;1009;51.436;6.972;2023-07-09T02:12:11;5.80;;;4.07;;
2011;SDS011;1009;51.436;6.972;2023-07-09T02:14:40;6.43;;;3.80;;
2011;SDS011;1009;51.436;6.972;2023-07-09T02:17:07;4.80;;;3.20;;
2011;SDS011;1009;51.436;6.972;2023-07-09T02:19:35;4.87;;;3.87;;
2011;SDS011;1009;51.436;6.972;2023-07-09T02:22:02;7.40;;;3.73;;
2011;SDS011;1009;51.436;6.972;2023-07-09T02:24:29;7.17;;;3.83;;
2011;SDS011;1009;51.436;6.972;2023-07-09T02:26:59;5.20;;;4.03;;
2011;SDS011;1009;51.436;6.972;2023-07-09T02:29:27;5.00;;;4.23;;
2011;SDS011;1009;51.436;6.972;2023-07-09T02:31:55;5.83;;;4.57;;
2011;SDS011;1009;51.436;6.972;2023-07-09T02:34:24;6.90;;;3.83;;
2011;SDS011;1009;51.436;6.972;2023-07-09T02:36:51;5.70;;;4.67;;
2011;SDS011;1009;51.436;6.972;2023-07-09T02:39:18;8.23;;;4.37;;
2011;SDS011;1009;51.436;6.972;2023-07-09T02:41:45;7.70;;;4.37;;
2011;SDS011;1009;51.436;6.972;2023-07-09T02:44:13;5.13;;;3.80;;
2011;SDS011;1009;51.436;6.972;2023-07-09T02:46:40;6.10;;;3.80;;
2011;SDS011;1009;51.436;6.972;2023-07-09T02:49:09;5.63;;;3.37;;
2011;SDS011;1009;51.436;6.972;2023-07-09T02:51:37;12.63;;;3.90;;
2011;SDS011;1009;51.436;6.972;2023-07-09T02:54:04;5.33;;;3.40;;
2011;SDS011;1009;51.436;6.972;2023-07-09T02:56:31;6.93;;;5.07;;
2011;SDS011;1009;51.436;6.972;2023-07-09T02:58:58;7.40;;;4.53;;
2011;SDS011;1009;51.436;6.972;2023-07-09T03:01:26;7.10;;;3.80;;
2011;SDS011;1009;51.436;6.972;2023-07-09T03:03:54;6.27;;;3.80;;
2011;SDS011;1009;51.436;6.972;2023-07-09T03:06:21;5.00;;;3.80;;
2011;SDS011;1009;51.436;6.972;2023-07-09T03:08:49;7.13;;;4.30;;
2011;SDS011;1009;51.436;6.972;2023-07-09T03:11:16;5.73;;;3.87;;
2011;SDS011;1009;51.436;6.972;2023-07-09T03:13:43;6.30;;;3.87;;
2011;SDS011;1009;51.436;6.972;2023-07-09T03:16:10;6.83;;;3.90;;
2011;SDS011;1009;51.436;6.972;2023-07-09T03:18:39;5.70;;;3.70;;
2011;SDS011;1009;51.436;6.972;2023-07-09T03:21:06;5.30;;;4.20;;
2011;SDS011;1009;51.436;6.972;2023-07-09T03:23:33;8.47;;;4.57;;
2011;SDS011;1009;51.436;6.972;2023-07-09T03:26:00;5.93;;;4.40;;
2011;SDS011;1009;51.436;6.972;2023-07-09T03:28:27;7.00;;;3.87;;
2011;SDS011;1009;51.436;6.972;2023-07-09T03:30:55;8.53;;;4.70;;
2011;SDS011;1009;51.436;6.972;2023-07-09T03:33:22;4.97;;;3.83;;
2011;SDS011;1009;51.436;6.972;2023-07-09T03:35:50;5.77;;;3.97;;
2011;SDS011;1009;51.436;6.972;2023-07-09T03:38:17;5.73;;;3.97;;
2011;SDS011;1009;51.436;6.972;2023-07-09T03:40:44;7.03;;;4.50;;
2011;SDS011;1009;51.436;6.972;2023-07-09T03:43:11;4.30;;;3.47;;
2011;SDS011;1009;51.436;6.972;2023-07-09T03:45:38;6.90;;;4.43;;
2011;SDS011;1009;51.436;6.972;2023-07-09T03:48:05;5.40;;;4.00;;
2011;SDS011;1009;51.436;6.972;2023-07-09T03:50:32;6.40;;;4.00;;
2011;SDS011;1009;51.436;6.972;2023-07-09T03:53:01;5.27;;;3.87;;
2011;SDS011;1009;51.436;6.972;2023-07-09T03:55:27;5.73;;;4.10;;
2011;SDS011;1009;51.436;6.972;2023-07-09T03:57:54;6.40;;;4.10;;
2011;SDS011;1009;51.436;6.972;2023-07-09T04:00:21;5.97;;;4.20;;
2011;SDS011;1009;51.436;6.972;2023-07-09T04:02:49;7.20;;;4.60;;
2011;SDS011;1009;51.436;6.972;2023-07-09T04:05:16;5.10;;;4.17;;
2011;SDS011;1009;51.436;6.972;2023-07-09T04:07:43;6.90;;;4.73;;
2011;SDS011;1009;51.436;6.972;2023-07-09T04:10:13;6.03;;;3.53;;
2011;SDS011;1009;51.436;6.972;2023-07-09T04:12:40;5.50;;;4.40;;
2011;SDS011;1009;51.436;6.972;2023-07-09T04:15:07;6.87;;;4.63;;
2011;SDS011;1009;51.436;6.972;2023-07-09T04:17:35;5.03;;;3.57;;
2011;SDS011;1009;51.436;6.972;2023-07-09T04:20:02;5.20;;;3.93;;
2011;SDS011;1009;51.436;6.972;2023-07-09T04:22:32;11.60;;;5.07;;
2011;SDS011;1009;51.436;6.972;2023-07-09T04:24:59;5.80;;;4.53;;
2011;SDS011;1009;51.436;6.972;2023-07-09T04:27:29;5.60;;;4.73;;
2011;SDS011;1009;51.436;6.972;2023-07-09T04:29:56;5.47;;;4.37;;
2011;SDS011;1009;51.436;6.972;2023-07-09T04:32:23;5.90;;;4.13;;
2011;SDS011;1009;51.436;6.972;2023-07-09T04:34:50;6.77;;;4.50;;
2011;SDS011;1009;51.436;6.972;2023-07-09T04:37:16;8.27;;;3.83;;
2011;SDS011;1009;51.436;6.972;2023-07-09T04:39:44;6.30;;;4.40;;
2011;SDS011;1009;51.436;6.972;2023-07-09T04:42:13;5.80;;;3.47;;
2011;SDS011;1009;51.436;6.972;2023-07-09T04:44:42;6.40;;;4.10;;
2011;SDS011;1009;51.436;6.972;2023-07-09T04:47:10;7.23;;;3.80;;
2011;SDS011;1009;51.436;6.972;2023-07-09T04:49:38;5.63;;;4.43;;
2011;SDS011;1009;51.436;6.972;2023-07-09T04:52:05;6.57;;;4.63;;
2011;SDS011;1009;51.436;6.972;2023-07-09T04:54:33;7.83;;;3.90;;
2011;SDS011;1009;51.436;6.972;2023-07-09T04:56:59;6.27;;;4.60;;
2011;SDS011;1009;51.436;6.972;2023-07-09T04:59:27;5.33;;;4.70;;
2011;SDS011;1009;51.436;6.972;2023-07-09T05:01:55;5.10;;;4.00;;
2011;SDS011;1009;51.436;6.972;2023-07-09T05:04:21;9.33;;;3.70;;
2011;SDS011;1009;51.436;6.972;2023-07-09T05:06:48;8.47;;;4.10;;
2011;SDS011;1009;51.436;6.972;2023-07-09T05:09:15;5.87;;;3.93;;
2011;SDS011;1009;51.436;6.972;2023-07-09T05:11:42;7.03;;;4.27;;
2011;SDS011;1009;51.436;6.972;2023-07-09T05:14:09;5.93;;;4.00;;
2011;SDS011;1009;51.436;6.972;2023-07-09T05:16:35;8.47;;;4.30;;
2011;SDS011;1009;51.436;6.972;2023-07-09T05:19:04;7.87;;;4.10;;
2011;SDS011;1009;51.436;6.972;2023-07-09T05:21:32;9.73;;;4.43;;
2011;SDS011;1009;51.436;6.972;2023-07-09T05:23:59;5.67;;;4.50;;
2011;SDS011;1009;51.436;6.972;2023-07-09T05:26:26;7.40;;;4.43;;
2011;SDS011;1009;51.436;6.972;2023-07-09T05:28:53;5.10;;;3.90;;
2011;SDS011;1009;51.436;6.972;2023-07-09T05:31:21;4.47;;;3.60;;
2011;SDS011;1009;51.436;6.972;2023-07-09T05:33:48;5.10;;;3.70;;
2011;SDS011;1009;51.436;6.972;2023-07-09T05:36:16;7.07;;;3.93;;
2011;SDS011;1009;51.436;6.972;2023-07-09T05:38:45;5.83;;;4.30;;
2011;SDS011;1009;51.436;6.972;2023-07-09T05:41:12;8.40;;;4.93;;
2011;SDS011;1009;51.436;6.972;2023-07-09T05:43:41;6.07;;;4.10;;
2011;SDS011;1009;51.436;6.972;2023-07-09T05:46:09;5.63;;;3.73;;
2011;SDS011;1009;51.436;6.972;2023-07-09T05:48:36;6.70;;;4.30;;
2011;SDS011;1009;51.436;6.972;2023-07-09T05:51:03;7.50;;;4.30;;
2011;SDS011;1009;51.436;6.972;2023-07-09T05:53:31;4.20;;;3.77;;
2011;SDS011;1009;51.436;6.972;2023-07-09T05:55:58;8.20;;;4.13;;
2011;SDS011;1009;51.436;6.972;2023-07-09T05:58:25;6.90;;;4.30;;
2011;SDS011;1009;51.436;6.972;2023-07-09T06:00:52;5.77;;;3.80;;
2011;SDS011;1009;51.436;6.972;2023-07-09T06:03:21;6.00;;;3.90;;
2011;SDS011;1009;51.436;6.972;2023-07-09T06:05:49;10.70;;;4.57;;
2011;SDS011;1009;51.436;6.972;2023-07-09T06:08:17;5.90;;;4.40;;
2011;SDS011;1009;51.436;6.972;2023-07-09T06:10:52;9.23;;;4.47;;
2011;SDS011;1009;51.436;6.972;2023-07-09T06:13:24;8.23;;;4.50;;
2011;SDS011;1009;51.436;6.972;2023-07-09T06:15:52;5.80;;;4.00;;
2011;SDS011;1009;51.436;6.972;2023-07-09T06:18:20;7.50;;;4.67;;
2011;SDS011;1009;51.436;6.972;2023-07-09T06:20:48;5.47;;;4.33;;
2011;SDS011;1009;51.436;6.972;2023-07-09T06:23:16;6.20;;;4.30;;
2011;SDS011;1009;51.436;6.972;2023-07-09T06:25:43;5.93;;;4.70;;
2011;SDS011;1009;51.436;6.972;2023-07-09T06:28:13;7.83;;;4.17;;
2011;SDS011;1009;51.436;6.972;2023-07-09T06:30:41;6.97;;;4.90;;
2011;SDS011;1009;51.436;6.972;2023-07-09T06:33:07;5.87;;;4.20;;
2011;SDS011;1009;51.436;6.972;2023-07-09T06:35:34;4.77;;;4.17;;
2011;SDS011;1009;51.436;6.972;2023-07-09T06:38:01;5.93;;;4.23;;
2011;SDS011;1009;51.436;6.972;2023-07-09T06:40:28;6.80;;;4.27;;
2011;SDS011;1009;51.436;6.972;2023-07-09T06:42:55;6.87;;;4.93;;
2011;SDS011;1009;51.436;6.972;2023-07-09T06:45:24;6.40;;;4.23;;
2011;SDS011;1009;51.436;6.972;2023-07-09T06:47:50;7.30;;;4.63;;
2011;SDS011;1009;51.436;6.972;2023-07-09T06:50:17;7.30;;;4.80;;
2011;SDS011;1009;51.436;6.972;2023-07-09T06:52:44;5.90;;;4.10;;
2011;SDS011;1009;51.436;6.972;2023-07-09T06:55:11;5.93;;;4.40;;
2011;SDS011;1009;51.436;6.972;2023-07-09T06:57:38;5.93;;;4.43;;
2011;SDS011;1009;51.436;6.972;2023-07-09T07:00:05;7.30;;;4.70;;
2011;SDS011;1009;51.436;6.972;2023-07-09T07:02:34;5.50;;;4.30;;
2011;SDS011;1009;51.436;6.972;2023-07-09T07:05:01;8.50;;;4.90;;
2011;SDS011;1009;51.436;6.972;2023-07-09T07:07:28;6.63;;;4.60;;
2011;SDS011;1009;51.436;6.972;2023-07-09T07:09:54;7.23;;;4.73;;
2011;SDS011;1009;51.436;6.972;2023-07-09T07:12:25;7.03;;;4.33;;
2011;SDS011;1009;51.436;6.972;2023-07-09T07:14:53;6.97;;;4.57;;
2011;SDS011;1009;51.436;6.972;2023-07-09T07:17:20;5.77;;;4.37;;
2011;SDS011;1009;51.436;6.972;2023-07-09T07:19:49;6.90;;;4.30;;
2011;SDS011;1009;51.436;6.972;2023-07-09T07:22:16;6.60;;;4.30;;
2011;SDS011;1009;51.436;6.972;2023-07-09T07:24:43;5.57;;;4.77;;
2011;SDS011;1009;51.436;6.972;2023-07-09T07:27:09;5.93;;;4.50;;
2011;SDS011;1009;51.436;6.972;2023-07-09T07:29:36;5.83;;;4.30;;
2011;SDS011;1009;51.436;6.972;2023-07-09T07:32:03;6.63;;;4.93;;
2011;SDS011;1009;51.436;6.972;2023-07-09T07:34:31;7.40;;;4.37;;
2011;SDS011;1009;51.436;6.972;2023-07-09T07:36:59;7.90;;;4.33;;
2011;SDS011;1009;51.436;6.972;2023-07-09T07:39:26;5.43;;;4.37;;
2011;SDS011;1009;51.436;6.972;2023-07-09T07:41:52;5.57;;;4.33;;
2011;SDS011;1009;51.436;6.972;2023-07-09T07:44:20;6.77;;;4.37;;
2011;SDS011;1009;51.436;6.972;2023-07-09T07:46:48;5.63;;;4.80;;
2011;SDS011;1009;51.436;6.972;2023-07-09T07:49:14;6.93;;;4.97;;
2011;SDS011;1009;51.436;6.972;2023-07-09T07:51:41;5.33;;;4.63;;
2011;SDS011;1009;51.436;6.972;2023-07-09T07:54:11;6.60;;;4.50;;
2011;SDS011;1009;51.436;6.972;2023-07-09T07:56:38;6.87;;;4.67;;
2011;SDS011;1009;51.436;6.972;2023-07-09T07:59:05;8.10;;;4.70;;
2011;SDS011;1009;51.436;6.972;2023-07-09T08:01:32;6.77;;;4.23;;
2011;SDS011;1009;51.436;6.972;2023-07-09T08:04:00;8.00;;;4.97;;
2011;SDS011;1009;51.436;6.972;2023-07-09T08:06:27;6.27;;;4.10;;
2011;SDS011;1009;51.436;6.972;2023-07-09T08:08:56;7.20;;;4.30;;
2011;SDS011;1009;51.436;6.972;2023-07-09T08:11:24;7.20;;;4.30;;
2011;SDS011;1009;51.436;6.972;2023-07-09T08:13:53;7.63;;;4.97;;
2011;SDS011;1009;51.436;6.972;2023-07-09T08:16:19;4.93;;;4.43;;
2011;SDS011;1009;51.436;6.972;2023-07-09T08:18:46;7.63;;;4.70;;
2011;SDS011;1009;51.436;6.972;2023-07-09T08:21:13;8.83;;;4.70;;
2011;SDS011;1009;51.436;6.972;2023-07-09T08:23:40;6.20;;;4.20;;
2011;SDS011;1009;51.436;6.972;2023-07-09T08:26:06;5.93;;;4.80;;
2011;SDS011;1009;51.436;6.972;2023-07-09T08:28:35;5.53;;;4.80;;
2011;SDS011;1009;51.436;6.972;2023-07-09T08:31:01;5.87;;;3.73;;
2011;SDS011;1009;51.436;6.972;2023-07-09T08:33:28;5.23;;;4.30;;
2011;SDS011;1009;51.436;6.972;2023-07-09T08:35:55;7.07;;;5.00;;
2011;SDS011;1009;51.436;6.972;2023-07-09T08:38:22;6.70;;;4.63;;
2011;SDS011;1009;51.436;6.972;2023-07-09T08:40:50;5.53;;;4.93;;
2011;SDS011;1009;51.436;6.972;2023-07-09T08:43:24;6.10;;;4.40;;
2011;SDS011;1009;51.436;6.972;2023-07-09T08:46:06;6.30;;;4.63;;
2011;SDS011;1009;51.436;6.972;2023-07-09T08:48:41;8.00;;;5.37;;
2011;SDS011;1009;51.436;6.972;2023-07-09T08:51:12;6.60;;;4.90;;
2011;SDS011;1009;51.436;6.972;2023-07-09T08:53:43;7.27;;;5.07;;
2011;SDS011;1009;51.436;6.972;2023-07-09T08:56:14;5.50;;;4.13;;
2011;SDS011;1009;51.436;6.972;2023-07-09T08:58:42;5.47;;;4.27;;
2011;SDS011;1009;51.436;6.972;2023-07-09T09:01:17;5.00;;;4.30;;
2011;SDS011;1009;51.436;6.972;2023-07-09T09:03:46;6.57;;;4.30;;
2011;SDS011;1009;51.436;6.972;2023-07-09T09:06:16;4.20;;;3.80;;
2011;SDS011;1009;51.436;6.972;2023-07-09T09:08:47;4.80;;;4.30;;
2011;SDS011;1009;51.436;6.972;2023-07-09T09:11:21;6.83;;;4.97;;
2011;SDS011;1009;51.436;6.972;2023-07-09T09:13:56;5.80;;;5.03;;
2011;SDS011;1009;51.436;6.972;2023-07-09T09:16:30;5.53;;;3.60;;
2011;SDS011;1009;51.436;6.972;2023-07-09T09:18:59;6.70;;;4.60;;
2011;SDS011;1009;51.436;6.972;2023-07-09T09:21:28;4.70;;;3.90;;
2011;SDS011;1009;51.436;6.972;2023-07-09T09:23:58;5.93;;;4.50;;
2011;SDS011;1009;51.436;6.972;2023-07-09T09:26:38;8.60;;;4.50;;
2011;SDS011;1009;51.436;6.972;2023-07-09T09:29:09;5.40;;;3.97;;
2011;SDS011;1009;51.436;6.972;2023-07-09T09:31:39;6.37;;;3.37;;
2011;SDS011;1009;51.436;6.972;2023-07-09T09:34:16;6.97;;;4.30;;
2011;SDS011;1009;51.436;6.972;2023-07-09T09:36:44;5.50;;;4.00;;
2011;SDS011;1009;51.436;6.972;2023-07-09T09:39:11;5.10;;;3.90;;
2011;SDS011;1009;51.436;6.972;2023-07-09T09:41:37;6.20;;;4.50;;
2011;SDS011;1009;51.436;6.972;2023-07-09T09:44:05;7.50;;;4.80;;
2011;SDS011;1009;51.436;6.972;2023-07-09T09:46:44;5.47;;;3.47;;
2011;SDS011;1009;51.436;6.972;2023-07-09T09:49:11;4.83;;;3.70;;
2011;SDS011;1009;51.436;6.972;2023-07-09T09:51:39;4.73;;;4.03;;
2011;SDS011;1009;51.436;6.972;2023-07-09T09:54:11;5.40;;;4.20;;
2011;SDS011;1009;51.436;6.972;2023-07-09T09:56:43;5.00;;;3.90;;
2011;SDS011;1009;51.436;6.972;2023-07-09T09:59:16;4.70;;;3.70;;
2011;SDS011;1009;51.436;6.972;2023-07-09T10:01:46;7.03;;;3.80;;
2011;SDS011;1009;51.436;6.972;2023-07-09T10:04:16;6.80;;;4.33;;
2011;SDS011;1009;51.436;6.972;2023-07-09T10:06:46;4.80;;;4.00;;
2011;SDS011;1009;51.436;6.972;2023-07-09T10:09:19;5.40;;;4.10;;
2011;SDS011;1009;51.436;6.972;2023-07-09T10:11:57;3.53;;;3.20;;
2011;SDS011;1009;51.436;6.972;2023-07-09T10:14:40;4.17;;;3.43;;
2011;SDS011;1009;51.436;6.972;2023-07-09T10:17:18;5.03;;;3.70;;
2011;SDS011;1009;51.436;6.972;2023-07-09T10:19:51;4.70;;;3.90;;
2011;SDS011;1009;51.436;6.972;2023-07-09T10:22:31;4.60;;;3.37;;
2011;SDS011;1009;51.436;6.972;2023-07-09T10:25:09;5.67;;;3.50;;
2011;SDS011;1009;51.436;6.972;2023-07-09T10:27:48;6.90;;;3.33;;
2011;SDS011;1009;51.436;6.972;2023-07-09T10:30:32;4.53;;;3.57;;
2011;SDS011;1009;51.436;6.972;2023-07-09T10:33:10;4.30;;;3.50;;
2011;SDS011;1009;51.436;6.972;2023-07-09T10:35:42;5.20;;;3.30;;
2011;SDS011;1009;51.436;6.972;2023-07-09T10:38:20;5.60;;;3.40;;
2011;SDS011;1009;51.436;6.972;2023-07-09T10:40:58;4.93;;;3.60;;
2011;SDS011;1009;51.436;6.972;2023-07-09T10:43:30;5.27;;;3.40;;
2011;SDS011;1009;51.436;6.972;2023-07-09T10:46:02;5.70;;;3.30;;
2011;SDS011;1009;51.436;6.972;2023-07-09T10:48:34;6.00;;;3.50;;
2011;SDS011;1009;51.436;6.972;2023-07-09T10:51:05;4.93;;;3.20;;
2011;SDS011;1009;51.436;6.972;2023-07-09T10:53:43;6.13;;;3.10;;
2011;SDS011;1009;51.436;6.972;2023-07-09T10:56:12;3.57;;;2.83;;
2011;SDS011;1009;51.436;6.972;2023-07-09T10:58:43;4.23;;;3.17;;
2011;SDS011;1009;51.436;6.972;2023-07-09T11:01:15;4.77;;;2.90;;
2011;SDS011;1009;51.436;6.972;2023-07-09T11:03:48;3.70;;;2.67;;
2011;SDS011;1009;51.436;6.972;2023-07-09T11:06:18;6.60;;;3.00;;
2011;SDS011;1009;51.436;6.972;2023-07-09T11:08:47;3.80;;;3.33;;
2011;SDS011;1009;51.436;6.972;2023-07-09T11:11:23;7.27;;;3.27;;
2011;SDS011;1009;51.436;6.972;2023-07-09T11:13:56;5.70;;;3.03;;
2011;SDS011;1009;51.436;6.972;2023-07-09T11:16:27;3.37;;;2.90;;
2011;SDS011;1009;51.436;6.972;2023-07-09T11:19:00;5.57;;;3.23;;
2011;SDS011;1009;51.436;6.972;2023-07-09T11:21:30;3.50;;;3.20;;
2011;SDS011;1009;51.436;6.972;2023-07-09T11:23:59;5.20;;;3.50;;
2011;SDS011;1009;51.436;6.972;2023-07-09T11:26:27;3.33;;;2.57;;
2011;SDS011;1009;51.436;6.972;2023-07-09T11:29:06;4.63;;;2.67;;
2011;SDS011;1009;51.436;6.972;2023-07-09T11:31:42;5.30;;;2.80;;
2011;SDS011;1009;51.436;6.972;2023-07-09T11:34:17;4.07;;;2.77;;
2011;SDS011;1009;51.436;6.972;2023-07-09T11:36:48;6.47;;;3.20;;
2011;SDS011;1009;51.436;6.972;2023-07-09T11:39:17;3.83;;;2.87;;
2011;SDS011;1009;51.436;6.972;2023-07-09T11:41:46;3.90;;;2.90;;
2011;SDS011;1009;51.436;6.972;2023-07-09T11:44:15;4.27;;;2.67;;
2011;SDS011;1009;51.436;6.972;2023-07-09T11:46:52;5.20;;;3.03;;
2011;SDS011;1009;51.436;6.972;2023-07-09T11:49:27;5.40;;;3.50;;
2011;SDS011;1009;51.436;6.972;2023-07-09T11:51:59;3.70;;;2.90;;
2011;SDS011;1009;51.436;6.972;2023-07-09T11:54:30;4.13;;;3.73;;
2011;SDS011;1009;51.436;6.972;2023-07-09T11:57:01;4.60;;;3.20;;
2011;SDS011;1009;51.436;6.972;2023-07-09T11:59:29;4.03;;;3.20;;
2011;SDS011;1009;51.436;6.972;2023-07-09T12:01:55;5.30;;;3.17;;
2011;SDS011;1009;51.436;6.972;2023-07-09T12:04:28;3.27;;;2.70;;
2011;SDS011;1009;51.436;6.972;2023-07-09T12:06:59;3.23;;;2.70;;
2011;SDS011;1009;51.436;6.972;2023-07-09T12:09:29;5.50;;;4.10;;
2011;SDS011;1009;51.436;6.972;2023-07-09T12:11:58;3.97;;;3.40;;
2011;SDS011;1009;51.436;6.972;2023-07-09T12:14:25;3.30;;;3.00;;
2011;SDS011;1009;51.436;6.972;2023-07-09T12:16:52;3.40;;;2.70;;
2011;SDS011;1009;51.436;6.972;2023-07-09T12:19:20;3.97;;;3.03;;
2011;SDS011;1009;51.436;6.972;2023-07-09T12:21:51;3.37;;;3.00;;
2011;SDS011;1009;51.436;6.972;2023-07-09T12:24:20;3.83;;;3.27;;
2011;SDS011;1009;51.436;6.972;2023-07-09T12:26:48;4.70;;;3.03;;
2011;SDS011;1009;51.436;6.972;2023-07-09T12:29:16;5.30;;;3.13;;
2011;SDS011;1009;51.436;6.972;2023-07-09T12:31:43;5.47;;;2.97;;
2011;SDS011;1009;51.436;6.972;2023-07-09T12:34:11;7.37;;;3.07;;
2011;SDS011;1009;51.436;6.972;2023-07-09T12:36:41;4.90;;;3.10;;
2011;SDS011;1009;51.436;6.972;2023-07-09T12:39:13;3.70;;;2.67;;
2011;SDS011;1009;51.436;6.972;2023-07-09T12:41:43;3.40;;;2.70;;
2011;SDS011;1009;51.436;6.972;2023-07-09T12:44:14;3.63;;;3.10;;
2011;SDS011;1009;51.436;6.972;2023-07-09T12:46:42;3.73;;;3.33;;
2011;SDS011;1009;51.436;6.972;2023-07-09T12:49:12;4.30;;;3.20;;
2011;SDS011;1009;51.436;6.972;2023-07-09T12:51:47;4.40;;;3.20;;
2011;SDS011;1009;51.436;6.972;2023-07-09T12:54:17;3.03;;;2.70;;
2011;SDS011;1009;51.436;6.972;2023-07-09T12:56:45;4.90;;;2.93;;
2011;SDS011;1009;51.436;6.972;2023-07-09T12:59:15;7.03;;;3.20;;
2011;SDS011;1009;51.436;6.972;2023-07-09T13:01:47;5.33;;;3.60;;
2011;SDS011;1009;51.436;6.972;2023-07-09T13:04:15;4.67;;;3.50;;
2011;SDS011;1009;51.436;6.972;2023-07-09T13:06:42;4.77;;;3.60;;
2011;SDS011;1009;51.436;6.972;2023-07-09T13:09:13;3.83;;;3.27;;
2011;SDS011;1009;51.436;6.972;2023-07-09T13:11:45;3.80;;;3.20;;
2011;SDS011;1009;51.436;6.972;2023-07-09T13:14:19;3.13;;;2.63;;
2011;SDS011;1009;51.436;6.972;2023-07-09T13:16:47;6.53;;;3.40;;
2011;SDS011;1009;51.436;6.972;2023-07-09T13:19:15;3.50;;;3.13;;
2011;SDS011;1009;51.436;6.972;2023-07-09T13:21:41;5.43;;;3.60;;
2011;SDS011;1009;51.436;6.972;2023-07-09T13:24:11;4.60;;;3.40;;
2011;SDS011;1009;51.436;6.972;2023-07-09T13:26:41;3.33;;;2.80;;
2011;SDS011;1009;51.436;6.972;2023-07-09T13:29:12;5.70;;;3.60;;
2011;SDS011;1009;51.436;6.972;2023-07-09T13:31:42;3.20;;;2.90;;
2011;SDS011;1009;51.436;6.972;2023-07-09T13:34:13;4.10;;;3.60;;
2011;SDS011;1009;51.436;6.972;2023-07-09T13:36:45;3.97;;;3.40;;
2011;SDS011;1009;51.436;6.972;2023-07-09T13:39:12;5.03;;;3.33;;
2011;SDS011;1009;51.436;6.972;2023-07-09T13:41:39;3.73;;;3.43;;
2011;SDS011;1009;51.436;6.972;2023-07-09T13:44:10;4.30;;;3.40;;
2011;SDS011;1009;51.436;6.972;2023-07-09T13:46:38;4.63;;;3.57;;
2011;SDS011;1009;51.436;6.972;2023-07-09T13:49:07;4.87;;;3.87;;
2011;SDS011;1009;51.436;6.972;2023-07-09T13:51:35;3.73;;;3.33;;
2011;SDS011;1009;51.436;6.972;2023-07-09T13:54:05;4.07;;;3.60;;
2011;SDS011;1009;51.436;6.972;2023-07-09T13:56:39;4.43;;;3.53;;
2011;SDS011;1009;51.436;6.972;2023-07-09T13:59:12;5.13;;;4.10;;
2011;SDS011;1009;51.436;6.972;2023-07-09T14:01:40;10.30;;;7.13;;
2011;SDS011;1009;51.436;6.972;2023-07-09T14:04:08;8.17;;;5.97;;
2011;SDS011;1009;51.436;6.972;2023-07-09T14:06:37;6.53;;;4.10;;
2011;SDS011;1009;51.436;6.972;2023-07-09T14:09:04;5.73;;;4.30;;
2011;SDS011;1009;51.436;6.972;2023-07-09T14:11:32;6.93;;;4.90;;
2011;SDS011;1009;51.436;6.972;2023-07-09T14:13:59;10.90;;;5.03;;
2011;SDS011;1009;51.436;6.972;2023-07-09T14:16:27;8.23;;;4.30;;
2011;SDS011;1009;51.436;6.972;2023-07-09T14:18:54;5.43;;;3.20;;
2011;SDS011;1009;51.436;6.972;2023-07-09T14:21:22;7.90;;;4.30;;
2011;SDS011;1009;51.436;6.972;2023-07-09T14:23:52;10.03;;;4.90;;
2011;SDS011;1009;51.436;6.972;2023-07-09T14:26:19;9.00;;;4.90;;
2011;SDS011;1009;51.436;6.972;2023-07-09T14:28:46;6.70;;;5.10;;
2011;SDS011;1009;51.436;6.972;2023-07-09T14:31:17;6.27;;;5.10;;
2011;SDS011;1009;51.436;6.972;2023-07-09T14:33:48;8.07;;;4.80;;
2011;SDS011;1009;51.436;6.972;2023-07-09T14:36:15;5.10;;;4.60;;
2011;SDS011;1009;51.436;6.972;2023-07-09T14:38:42;5.83;;;5.13;;
2011;SDS011;1009;51.436;6.972;2023-07-09T14:41:21;13.53;;;5.67;;
2011;SDS011;1009;51.436;6.972;2023-07-09T14:43:57;8.50;;;4.57;;
2011;SDS011;1009;51.436;6.972;2023-07-09T14:46:24;9.63;;;6.27;;
2011;SDS011;1009;51.436;6.972;2023-07-09T14:48:52;3.53;;;3.13;;
2011;SDS011;1009;51.436;6.972;2023-07-09T14:51:19;4.53;;;3.27;;
2011;SDS011;1009;51.436;6.972;2023-07-09T14:53:46;5.50;;;5.00;;
2011;SDS011;1009;51.436;6.972;2023-07-09T14:56:13;5.90;;;4.70;;
2011;SDS011;1009;51.436;6.972;2023-07-09T14:58:40;4.63;;;3.97;;
2011;SDS011;1009;51.436;6.972;2023-07-09T15:01:09;7.03;;;4.57;;
2011;SDS011;1009;51.436;6.972;2023-07-09T15:03:37;5.37;;;3.73;;
2011;SDS011;1009;51.436;6.972;2023-07-09T15:06:05;8.57;;;4.03;;
2011;SDS011;1009;51.436;6.972;2023-07-09T15:08:32;6.20;;;4.90;;
2011;SDS011;1009;51.436;6.972;2023-07-09T15:10:59;9.50;;;6.43;;
2011;SDS011;1009;51.436;6.972;2023-07-09T15:13:27;9.43;;;7.20;;
2011;SDS011;1009;51.436;6.972;2023-07-09T15:15:56;8.80;;;6.70;;
2011;SDS011;1009;51.436;6.972;2023-07-09T15:18:23;13.70;;;7.20;;
2011;SDS011;1009;51.436;6.972;2023-07-09T15:20:50;13.40;;;7.90;;
2011;SDS011;1009;51.436;6.972;2023-07-09T15:23:20;10.10;;;7.50;;
2011;SDS011;1009;51.436;6.972;2023-07-09T15:25:48;9.20;;;6.67;;
2011;SDS011;1009;51.436;6.972;2023-07-09T15:28:15;8.43;;;6.80;;
2011;SDS011;1009;51.436;6.972;2023-07-09T15:30:42;8.30;;;6.37;;